sensor_id;sensor_type;location;lat;lon;timestamp;P1;durP1;ratioP1;P2;durP2;ratioP2
5521;SDS011;2783;48.730;8.006;2022-11-15T00:00:13;15.05;;;9.60;;
5521;SDS011;2783;48.730;8.006;2022-11-15T00:02:39;15.63;;;10.05;;
5521;SDS011;2783;48.730;8.006;2022-11-15T00:05:04;16.13;;;9.38;;
5521;SDS011;2783;48.730;8.006;2022-11-15T00:07:30;14.98;;;9.70;;
5521;SDS011;2783;48.730;8.006;2022-11-15T00:09:55;14.80;;;9.77;;
5521;SDS011;2783;48.730;8.006;2022-11-15T00:12:21;16.13;;;9.40;;
5521;SDS011;2783;48.730;8.006;2022-11-15T00:14:46;15.68;;;9.18;;
5521;SDS011;2783;48.730;8.006;2022-11-15T00:17:11;16.42;;;8.63;;
5521;SDS011;2783;48.730;8.006;2022-11-15T00:19:37;15.02;;;9.48;;
5521;SDS011;2783;48.730;8.006;2022-11-15T00:22:02;15.27;;;8.43;;
5521;SDS011;2783;48.730;8.006;2022-11-15T00:24:27;14.77;;;8.95;;
5521;SDS011;2783;48.730;8.006;2022-11-15T00:26:53;15.63;;;8.27;;
5521;SDS011;2783;48.730;8.006;2022-11-15T00:29:18;14.85;;;9.18;;
5521;SDS011;2783;48.730;8.006;2022-11-15T00:31:44;14.27;;;8.73;;
5521;SDS011;2783;48.730;8.006;2022-11-15T00:34:09;12.75;;;9.02;;
5521;SDS011;2783;48.730;8.006;2022-11-15T00:36:35;11.40;;;8.15;;
5521;SDS011;2783;48.730;8.006;2022-11-15T00:39:03;14.65;;;8.80;;
5521;SDS011;2783;48.730;8.006;2022-11-15T00:41:29;13.27;;;7.93;;
5521;SDS011;2783;48.730;8.006;2022-11-15T00:43:54;14.93;;;8.55;;
5521;SDS011;2783;48.730;8.006;2022-11-15T00:46:20;14.52;;;8.00;;
5521;SDS011;2783;48.730;8.006;2022-11-15T00:48:45;12.40;;;7.90;;
5521;SDS011;2783;48.730;8.006;2022-11-15T00:51:11;10.73;;;6.55;;
5521;SDS011;2783;48.730;8.006;2022-11-15T00:53:36;8.23;;;5.93;;
5521;SDS011;2783;48.730;8.006;2022-11-15T00:56:02;11.25;;;5.70;;
5521;SDS011;2783;48.730;8.006;2022-11-15T00:58:27;10.82;;;5.88;;
5521;SDS011;2783;48.730;8.006;2022-11-15T01:00:53;12.50;;;6.30;;
5521;SDS011;2783;48.730;8.006;2022-11-15T01:03:18;8.55;;;5.38;;
5521;SDS011;2783;48.730;8.006;2022-11-15T01:05:43;10.18;;;5.10;;
5521;SDS011;2783;48.730;8.006;2022-11-15T01:08:11;7.70;;;4.75;;
5521;SDS011;2783;48.730;8.006;2022-11-15T01:10:38;10.45;;;5.43;;
5521;SDS011;2783;48.730;8.006;2022-11-15T01:13:03;9.02;;;5.38;;
5521;SDS011;2783;48.730;8.006;2022-11-15T01:15:29;10.45;;;5.85;;
5521;SDS011;2783;48.730;8.006;2022-11-15T01:17:54;8.45;;;5.18;;
5521;SDS011;2783;48.730;8.006;2022-11-15T01:20:19;8.15;;;5.35;;
5521;SDS011;2783;48.730;8.006;2022-11-15T01:22:45;9.27;;;5.32;;
5521;SDS011;2783;48.730;8.006;2022-11-15T01:25:10;8.98;;;5.15;;
5521;SDS011;2783;48.730;8.006;2022-11-15T01:27:36;9.23;;;5.07;;
5521;SDS011;2783;48.730;8.006;2022-11-15T01:30:01;9.25;;;5.57;;
5521;SDS011;2783;48.730;8.006;2022-11-15T01:32:27;9.55;;;5.50;;
5521;SDS011;2783;48.730;8.006;2022-11-15T01:34:53;8.32;;;6.00;;
5521;SDS011;2783;48.730;8.006;2022-11-15T01:37:18;8.00;;;5.03;;
5521;SDS011;2783;48.730;8.006;2022-11-15T01:39:43;7.13;;;3.83;;
5521;SDS011;2783;48.730;8.006;2022-11-15T01:42:12;7.47;;;4.72;;
5521;SDS011;2783;48.730;8.006;2022-11-15T01:49:53;8.40;;;4.68;;
5521;SDS011;2783;48.730;8.006;2022-11-15T01:52:20;6.75;;;4.60;;
5521;SDS011;2783;48.730;8.006;2022-11-15T01:54:49;9.95;;;5.00;;
5521;SDS011;2783;48.730;8.006;2022-11-15T01:57:19;7.97;;;4.40;;
5521;SDS011;2783;48.730;8.006;2022-11-15T01:59:44;8.02;;;5.10;;
5521;SDS011;2783;48.730;8.006;2022-11-15T02:02:11;8.10;;;4.47;;
5521;SDS011;2783;48.730;8.006;2022-11-15T02:04:41;8.85;;;4.82;;
5521;SDS011;2783;48.730;8.006;2022-11-15T02:07:08;10.00;;;5.30;;
5521;SDS011;2783;48.730;8.006;2022-11-15T02:09:36;6.43;;;4.18;;
5521;SDS011;2783;48.730;8.006;2022-11-15T02:12:02;8.27;;;5.13;;
5521;SDS011;2783;48.730;8.006;2022-11-15T02:14:28;7.28;;;4.65;;
5521;SDS011;2783;48.730;8.006;2022-11-15T02:22:14;9.63;;;4.65;;
5521;SDS011;2783;48.730;8.006;2022-11-15T02:32:48;9.90;;;4.88;;
5521;SDS011;2783;48.730;8.006;2022-11-15T02:40:46;8.43;;;4.90;;
5521;SDS011;2783;48.730;8.006;2022-11-15T02:43:17;8.93;;;4.95;;
5521;SDS011;2783;48.730;8.006;2022-11-15T02:49:30;10.63;;;6.00;;
5521;SDS011;2783;48.730;8.006;2022-11-15T02:51:58;6.82;;;4.65;;
5521;SDS011;2783;48.730;8.006;2022-11-15T02:54:24;13.48;;;7.40;;
5521;SDS011;2783;48.730;8.006;2022-11-15T02:56:54;10.23;;;6.03;;
5521;SDS011;2783;48.730;8.006;2022-11-15T02:59:37;10.05;;;5.53;;
5521;SDS011;2783;48.730;8.006;2022-11-15T03:02:18;10.73;;;5.97;;
5521;SDS011;2783;48.730;8.006;2022-11-15T03:04:56;11.15;;;6.75;;
5521;SDS011;2783;48.730;8.006;2022-11-15T03:07:40;9.82;;;6.00;;
5521;SDS011;2783;48.730;8.006;2022-11-15T03:10:26;10.18;;;6.10;;
5521;SDS011;2783;48.730;8.006;2022-11-15T03:18:34;8.40;;;4.43;;
5521;SDS011;2783;48.730;8.006;2022-11-15T03:21:04;8.13;;;4.97;;
5521;SDS011;2783;48.730;8.006;2022-11-15T03:23:33;9.25;;;5.13;;
5521;SDS011;2783;48.730;8.006;2022-11-15T03:26:01;8.10;;;4.55;;
5521;SDS011;2783;48.730;8.006;2022-11-15T03:28:32;10.05;;;4.90;;
5521;SDS011;2783;48.730;8.006;2022-11-15T03:31:01;9.13;;;4.75;;
5521;SDS011;2783;48.730;8.006;2022-11-15T03:33:49;8.77;;;5.15;;
5521;SDS011;2783;48.730;8.006;2022-11-15T03:36:18;6.85;;;4.80;;
5521;SDS011;2783;48.730;8.006;2022-11-15T03:38:46;8.30;;;4.15;;
5521;SDS011;2783;48.730;8.006;2022-11-15T03:41:35;7.63;;;4.85;;
5521;SDS011;2783;48.730;8.006;2022-11-15T03:47:03;10.15;;;4.10;;
5521;SDS011;2783;48.730;8.006;2022-11-15T03:49:34;8.57;;;4.15;;
5521;SDS011;2783;48.730;8.006;2022-11-15T03:52:02;8.73;;;4.47;;
5521;SDS011;2783;48.730;8.006;2022-11-15T03:54:30;8.38;;;4.45;;
5521;SDS011;2783;48.730;8.006;2022-11-15T03:56:55;11.35;;;4.82;;
5521;SDS011;2783;48.730;8.006;2022-11-15T03:59:21;7.85;;;4.15;;
5521;SDS011;2783;48.730;8.006;2022-11-15T04:01:47;6.53;;;4.10;;
5521;SDS011;2783;48.730;8.006;2022-11-15T04:04:13;7.65;;;4.68;;
5521;SDS011;2783;48.730;8.006;2022-11-15T04:06:38;8.27;;;5.03;;
5521;SDS011;2783;48.730;8.006;2022-11-15T04:09:04;9.27;;;4.60;;
5521;SDS011;2783;48.730;8.006;2022-11-15T04:11:29;7.53;;;4.57;;
5521;SDS011;2783;48.730;8.006;2022-11-15T04:13:55;8.32;;;4.68;;
5521;SDS011;2783;48.730;8.006;2022-11-15T04:16:20;6.65;;;4.00;;
5521;SDS011;2783;48.730;8.006;2022-11-15T04:18:45;7.75;;;4.93;;
5521;SDS011;2783;48.730;8.006;2022-11-15T04:21:31;8.35;;;4.65;;
5521;SDS011;2783;48.730;8.006;2022-11-15T04:24:15;8.93;;;5.50;;
5521;SDS011;2783;48.730;8.006;2022-11-15T04:26:40;11.07;;;5.45;;
5521;SDS011;2783;48.730;8.006;2022-11-15T04:29:06;8.52;;;5.15;;
5521;SDS011;2783;48.730;8.006;2022-11-15T04:31:50;10.82;;;5.43;;
5521;SDS011;2783;48.730;8.006;2022-11-15T04:34:16;16.02;;;8.90;;
5521;SDS011;2783;48.730;8.006;2022-11-15T04:36:41;13.52;;;7.20;;
5521;SDS011;2783;48.730;8.006;2022-11-15T04:39:25;21.35;;;7.15;;
5521;SDS011;2783;48.730;8.006;2022-11-15T04:41:50;14.70;;;7.32;;
5521;SDS011;2783;48.730;8.006;2022-11-15T04:44:16;10.93;;;6.32;;
5521;SDS011;2783;48.730;8.006;2022-11-15T04:46:41;12.18;;;6.97;;
5521;SDS011;2783;48.730;8.006;2022-11-15T04:49:07;12.40;;;6.70;;
5521;SDS011;2783;48.730;8.006;2022-11-15T04:51:33;12.30;;;7.63;;
5521;SDS011;2783;48.730;8.006;2022-11-15T04:53:58;11.00;;;6.60;;
5521;SDS011;2783;48.730;8.006;2022-11-15T04:56:24;14.43;;;7.53;;
5521;SDS011;2783;48.730;8.006;2022-11-15T04:58:49;10.00;;;5.70;;
5521;SDS011;2783;48.730;8.006;2022-11-15T05:01:15;20.48;;;6.63;;
5521;SDS011;2783;48.730;8.006;2022-11-15T05:03:40;21.35;;;6.43;;
5521;SDS011;2783;48.730;8.006;2022-11-15T05:06:25;17.33;;;6.50;;
5521;SDS011;2783;48.730;8.006;2022-11-15T05:08:50;11.63;;;5.95;;
5521;SDS011;2783;48.730;8.006;2022-11-15T05:11:16;11.63;;;6.00;;
5521;SDS011;2783;48.730;8.006;2022-11-15T05:13:41;10.85;;;6.15;;
5521;SDS011;2783;48.730;8.006;2022-11-15T05:16:07;10.85;;;6.32;;
5521;SDS011;2783;48.730;8.006;2022-11-15T05:18:32;11.38;;;5.95;;
5521;SDS011;2783;48.730;8.006;2022-11-15T05:21:04;9.65;;;6.05;;
5521;SDS011;2783;48.730;8.006;2022-11-15T05:23:31;14.18;;;6.75;;
5521;SDS011;2783;48.730;8.006;2022-11-15T05:25:59;9.50;;;5.93;;
5521;SDS011;2783;48.730;8.006;2022-11-15T05:28:28;10.18;;;6.57;;
5521;SDS011;2783;48.730;8.006;2022-11-15T05:31:00;10.45;;;5.88;;
5521;SDS011;2783;48.730;8.006;2022-11-15T05:33:36;9.00;;;5.93;;
5521;SDS011;2783;48.730;8.006;2022-11-15T05:36:07;11.45;;;5.93;;
5521;SDS011;2783;48.730;8.006;2022-11-15T05:38:39;13.40;;;7.03;;
5521;SDS011;2783;48.730;8.006;2022-11-15T05:41:05;11.60;;;6.63;;
5521;SDS011;2783;48.730;8.006;2022-11-15T05:43:31;9.77;;;6.22;;
5521;SDS011;2783;48.730;8.006;2022-11-15T05:46:00;13.75;;;6.63;;
5521;SDS011;2783;48.730;8.006;2022-11-15T05:48:28;14.50;;;6.10;;
5521;SDS011;2783;48.730;8.006;2022-11-15T05:50:53;10.90;;;6.60;;
5521;SDS011;2783;48.730;8.006;2022-11-15T05:53:20;10.32;;;6.60;;
5521;SDS011;2783;48.730;8.006;2022-11-15T05:55:48;12.63;;;6.78;;
5521;SDS011;2783;48.730;8.006;2022-11-15T05:58:14;13.38;;;6.13;;
5521;SDS011;2783;48.730;8.006;2022-11-15T06:00:40;17.30;;;6.45;;
5521;SDS011;2783;48.730;8.006;2022-11-15T06:03:05;10.40;;;5.40;;
5521;SDS011;2783;48.730;8.006;2022-11-15T06:05:31;8.82;;;5.53;;
5521;SDS011;2783;48.730;8.006;2022-11-15T06:07:57;9.88;;;5.53;;
5521;SDS011;2783;48.730;8.006;2022-11-15T06:10:23;8.52;;;5.30;;
5521;SDS011;2783;48.730;8.006;2022-11-15T06:12:59;8.88;;;5.32;;
5521;SDS011;2783;48.730;8.006;2022-11-15T06:15:25;7.95;;;4.90;;
5521;SDS011;2783;48.730;8.006;2022-11-15T06:17:51;7.63;;;4.65;;
5521;SDS011;2783;48.730;8.006;2022-11-15T06:20:17;10.02;;;4.72;;
5521;SDS011;2783;48.730;8.006;2022-11-15T06:22:42;8.90;;;4.70;;
5521;SDS011;2783;48.730;8.006;2022-11-15T06:25:08;8.77;;;4.55;;
5521;SDS011;2783;48.730;8.006;2022-11-15T06:27:34;9.20;;;5.28;;
5521;SDS011;2783;48.730;8.006;2022-11-15T06:29:59;9.80;;;5.32;;
5521;SDS011;2783;48.730;8.006;2022-11-15T06:32:24;7.93;;;5.07;;
5521;SDS011;2783;48.730;8.006;2022-11-15T06:34:50;9.80;;;5.38;;
5521;SDS011;2783;48.730;8.006;2022-11-15T06:37:15;7.18;;;4.47;;
5521;SDS011;2783;48.730;8.006;2022-11-15T06:39:41;9.10;;;5.45;;
5521;SDS011;2783;48.730;8.006;2022-11-15T06:42:07;11.38;;;5.75;;
5521;SDS011;2783;48.730;8.006;2022-11-15T06:44:34;9.60;;;5.75;;
5521;SDS011;2783;48.730;8.006;2022-11-15T06:46:59;16.30;;;6.05;;
5521;SDS011;2783;48.730;8.006;2022-11-15T06:49:24;11.32;;;5.60;;
5521;SDS011;2783;48.730;8.006;2022-11-15T06:51:50;8.52;;;5.35;;
5521;SDS011;2783;48.730;8.006;2022-11-15T06:54:15;9.88;;;5.25;;
5521;SDS011;2783;48.730;8.006;2022-11-15T06:56:41;10.32;;;4.53;;
5521;SDS011;2783;48.730;8.006;2022-11-15T06:59:06;8.60;;;4.32;;
5521;SDS011;2783;48.730;8.006;2022-11-15T07:01:31;10.68;;;4.13;;
5521;SDS011;2783;48.730;8.006;2022-11-15T07:03:57;5.97;;;3.60;;
5521;SDS011;2783;48.730;8.006;2022-11-15T07:06:22;7.00;;;3.90;;
5521;SDS011;2783;48.730;8.006;2022-11-15T07:08:48;7.57;;;3.80;;
5521;SDS011;2783;48.730;8.006;2022-11-15T07:11:13;7.53;;;3.42;;
5521;SDS011;2783;48.730;8.006;2022-11-15T07:13:39;6.75;;;3.33;;
5521;SDS011;2783;48.730;8.006;2022-11-15T07:16:05;7.40;;;3.65;;
5521;SDS011;2783;48.730;8.006;2022-11-15T07:18:35;7.38;;;3.70;;
5521;SDS011;2783;48.730;8.006;2022-11-15T07:21:07;6.68;;;3.30;;
5521;SDS011;2783;48.730;8.006;2022-11-15T07:23:35;8.40;;;3.10;;
5521;SDS011;2783;48.730;8.006;2022-11-15T07:26:03;6.47;;;4.15;;
5521;SDS011;2783;48.730;8.006;2022-11-15T07:28:28;6.70;;;2.83;;
5521;SDS011;2783;48.730;8.006;2022-11-15T07:30:54;7.07;;;4.18;;
5521;SDS011;2783;48.730;8.006;2022-11-15T07:33:19;5.57;;;3.30;;
5521;SDS011;2783;48.730;8.006;2022-11-15T07:35:45;4.97;;;3.10;;
5521;SDS011;2783;48.730;8.006;2022-11-15T07:38:14;6.57;;;3.80;;
5521;SDS011;2783;48.730;8.006;2022-11-15T07:40:40;7.03;;;3.38;;
5521;SDS011;2783;48.730;8.006;2022-11-15T07:43:06;6.75;;;3.70;;
5521;SDS011;2783;48.730;8.006;2022-11-15T07:45:32;7.20;;;4.13;;
5521;SDS011;2783;48.730;8.006;2022-11-15T07:47:59;5.10;;;3.33;;
5521;SDS011;2783;48.730;8.006;2022-11-15T07:50:25;8.10;;;3.88;;
5521;SDS011;2783;48.730;8.006;2022-11-15T07:52:58;7.43;;;3.88;;
5521;SDS011;2783;48.730;8.006;2022-11-15T07:55:25;8.45;;;3.72;;
5521;SDS011;2783;48.730;8.006;2022-11-15T07:57:52;5.85;;;3.55;;
5521;SDS011;2783;48.730;8.006;2022-11-15T08:00:18;7.97;;;3.95;;
5521;SDS011;2783;48.730;8.006;2022-11-15T08:02:44;9.20;;;4.00;;
5521;SDS011;2783;48.730;8.006;2022-11-15T08:05:10;6.55;;;4.20;;
5521;SDS011;2783;48.730;8.006;2022-11-15T08:07:35;7.40;;;3.88;;
5521;SDS011;2783;48.730;8.006;2022-11-15T08:10:03;7.30;;;3.85;;
5521;SDS011;2783;48.730;8.006;2022-11-15T08:12:30;7.68;;;3.78;;
5521;SDS011;2783;48.730;8.006;2022-11-15T08:14:56;9.30;;;4.60;;
5521;SDS011;2783;48.730;8.006;2022-11-15T08:17:22;6.45;;;4.40;;
5521;SDS011;2783;48.730;8.006;2022-11-15T08:19:48;9.57;;;5.25;;
5521;SDS011;2783;48.730;8.006;2022-11-15T08:22:14;6.53;;;4.45;;
5521;SDS011;2783;48.730;8.006;2022-11-15T08:24:39;7.80;;;4.68;;
5521;SDS011;2783;48.730;8.006;2022-11-15T08:27:05;7.63;;;4.57;;
5521;SDS011;2783;48.730;8.006;2022-11-15T08:29:39;7.03;;;4.13;;
5521;SDS011;2783;48.730;8.006;2022-11-15T08:32:06;8.55;;;5.20;;
5521;SDS011;2783;48.730;8.006;2022-11-15T08:34:32;12.10;;;6.53;;
5521;SDS011;2783;48.730;8.006;2022-11-15T08:36:58;8.50;;;5.03;;
5521;SDS011;2783;48.730;8.006;2022-11-15T08:39:23;11.23;;;5.95;;
5521;SDS011;2783;48.730;8.006;2022-11-15T08:41:48;11.88;;;6.07;;
5521;SDS011;2783;48.730;8.006;2022-11-15T08:44:14;12.70;;;5.63;;
5521;SDS011;2783;48.730;8.006;2022-11-15T08:46:39;11.18;;;6.43;;
5521;SDS011;2783;48.730;8.006;2022-11-15T08:49:05;11.68;;;7.80;;
5521;SDS011;2783;48.730;8.006;2022-11-15T08:51:30;12.05;;;7.03;;
5521;SDS011;2783;48.730;8.006;2022-11-15T08:53:56;12.98;;;7.65;;
5521;SDS011;2783;48.730;8.006;2022-11-15T08:56:21;12.77;;;6.80;;
5521;SDS011;2783;48.730;8.006;2022-11-15T08:58:46;10.55;;;6.05;;
5521;SDS011;2783;48.730;8.006;2022-11-15T09:01:16;12.45;;;6.07;;
5521;SDS011;2783;48.730;8.006;2022-11-15T09:03:43;9.15;;;5.05;;
5521;SDS011;2783;48.730;8.006;2022-11-15T09:06:09;9.60;;;5.20;;
5521;SDS011;2783;48.730;8.006;2022-11-15T09:08:34;9.32;;;5.50;;
5521;SDS011;2783;48.730;8.006;2022-11-15T09:11:02;7.07;;;4.50;;
5521;SDS011;2783;48.730;8.006;2022-11-15T09:13:29;7.05;;;4.88;;
5521;SDS011;2783;48.730;8.006;2022-11-15T09:15:58;7.65;;;4.40;;
5521;SDS011;2783;48.730;8.006;2022-11-15T09:18:25;8.77;;;4.47;;
5521;SDS011;2783;48.730;8.006;2022-11-15T09:20:50;7.20;;;4.65;;
5521;SDS011;2783;48.730;8.006;2022-11-15T09:23:16;7.10;;;3.60;;
5521;SDS011;2783;48.730;8.006;2022-11-15T09:25:41;6.28;;;3.63;;
5521;SDS011;2783;48.730;8.006;2022-11-15T09:28:07;5.82;;;3.88;;
5521;SDS011;2783;48.730;8.006;2022-11-15T09:30:33;9.50;;;4.78;;
5521;SDS011;2783;48.730;8.006;2022-11-15T09:32:58;8.18;;;4.85;;
5521;SDS011;2783;48.730;8.006;2022-11-15T09:35:24;6.97;;;4.03;;
5521;SDS011;2783;48.730;8.006;2022-11-15T09:37:49;7.22;;;4.10;;
5521;SDS011;2783;48.730;8.006;2022-11-15T09:40:15;7.60;;;3.78;;
5521;SDS011;2783;48.730;8.006;2022-11-15T09:45:27;5.30;;;3.55;;
5521;SDS011;2783;48.730;8.006;2022-11-15T09:53:14;6.10;;;3.15;;
5521;SDS011;2783;48.730;8.006;2022-11-15T09:56:03;5.50;;;3.42;;
5521;SDS011;2783;48.730;8.006;2022-11-15T09:58:40;7.72;;;3.90;;
5521;SDS011;2783;48.730;8.006;2022-11-15T10:01:12;6.68;;;3.63;;
5521;SDS011;2783;48.730;8.006;2022-11-15T10:03:43;8.63;;;6.20;;
5521;SDS011;2783;48.730;8.006;2022-11-15T10:06:15;8.82;;;5.55;;
5521;SDS011;2783;48.730;8.006;2022-11-15T10:08:58;6.55;;;4.13;;
5521;SDS011;2783;48.730;8.006;2022-11-15T10:11:38;4.85;;;3.90;;
5521;SDS011;2783;48.730;8.006;2022-11-15T10:14:10;6.25;;;3.38;;
5521;SDS011;2783;48.730;8.006;2022-11-15T10:16:52;5.47;;;3.72;;
5521;SDS011;2783;48.730;8.006;2022-11-15T10:30:36;9.05;;;3.95;;
5521;SDS011;2783;48.730;8.006;2022-11-15T10:33:26;5.32;;;3.42;;
5521;SDS011;2783;48.730;8.006;2022-11-15T10:41:16;7.25;;;4.80;;
5521;SDS011;2783;48.730;8.006;2022-11-15T10:46:31;7.35;;;4.30;;
5521;SDS011;2783;48.730;8.006;2022-11-15T10:49:19;6.28;;;4.28;;
5521;SDS011;2783;48.730;8.006;2022-11-15T10:57:22;7.75;;;3.65;;
5521;SDS011;2783;48.730;8.006;2022-11-15T10:59:55;5.57;;;3.35;;
5521;SDS011;2783;48.730;8.006;2022-11-15T11:02:28;4.45;;;2.45;;
5521;SDS011;2783;48.730;8.006;2022-11-15T11:04:57;6.07;;;3.08;;
5521;SDS011;2783;48.730;8.006;2022-11-15T11:07:28;5.85;;;2.80;;
5521;SDS011;2783;48.730;8.006;2022-11-15T11:12:27;4.57;;;2.42;;
5521;SDS011;2783;48.730;8.006;2022-11-15T11:14:56;3.95;;;2.45;;
5521;SDS011;2783;48.730;8.006;2022-11-15T11:35:05;7.07;;;3.47;;
5521;SDS011;2783;48.730;8.006;2022-11-15T11:37:51;5.47;;;3.30;;
5521;SDS011;2783;48.730;8.006;2022-11-15T11:40:25;7.03;;;3.13;;
5521;SDS011;2783;48.730;8.006;2022-11-15T11:45:27;11.57;;;3.58;;
5521;SDS011;2783;48.730;8.006;2022-11-15T11:48:03;14.35;;;3.70;;
5521;SDS011;2783;48.730;8.006;2022-11-15T11:50:38;6.95;;;3.50;;
5521;SDS011;2783;48.730;8.006;2022-11-15T11:53:11;8.68;;;3.40;;
5521;SDS011;2783;48.730;8.006;2022-11-15T11:58:25;10.60;;;3.75;;
5521;SDS011;2783;48.730;8.006;2022-11-15T12:03:59;8.02;;;2.80;;
5521;SDS011;2783;48.730;8.006;2022-11-15T12:06:35;7.22;;;3.03;;
5521;SDS011;2783;48.730;8.006;2022-11-15T12:14:56;4.80;;;2.63;;
5521;SDS011;2783;48.730;8.006;2022-11-15T12:17:28;5.85;;;2.83;;
5521;SDS011;2783;48.730;8.006;2022-11-15T12:20:19;6.03;;;2.78;;
5521;SDS011;2783;48.730;8.006;2022-11-15T12:31:14;6.45;;;3.63;;
5521;SDS011;2783;48.730;8.006;2022-11-15T12:33:59;7.32;;;3.47;;
5521;SDS011;2783;48.730;8.006;2022-11-15T12:36:33;5.78;;;3.50;;
5521;SDS011;2783;48.730;8.006;2022-11-15T12:39:12;5.25;;;3.13;;
5521;SDS011;2783;48.730;8.006;2022-11-15T12:41:40;4.72;;;2.70;;
5521;SDS011;2783;48.730;8.006;2022-11-15T12:44:22;8.02;;;3.63;;
5521;SDS011;2783;48.730;8.006;2022-11-15T13:04:55;4.20;;;2.58;;
5521;SDS011;2783;48.730;8.006;2022-11-15T13:17:37;4.10;;;2.63;;
5521;SDS011;2783;48.730;8.006;2022-11-15T13:33:52;6.20;;;2.60;;
5521;SDS011;2783;48.730;8.006;2022-11-15T13:36:37;5.38;;;2.70;;
5521;SDS011;2783;48.730;8.006;2022-11-15T13:39:04;4.80;;;2.80;;
5521;SDS011;2783;48.730;8.006;2022-11-15T13:41:50;5.68;;;2.55;;
5521;SDS011;2783;48.730;8.006;2022-11-15T13:44:24;5.85;;;2.63;;
5521;SDS011;2783;48.730;8.006;2022-11-15T13:47:03;4.43;;;2.70;;
5521;SDS011;2783;48.730;8.006;2022-11-15T13:49:37;6.43;;;3.35;;
5521;SDS011;2783;48.730;8.006;2022-11-15T13:52:04;4.53;;;2.55;;
5521;SDS011;2783;48.730;8.006;2022-11-15T13:57:23;5.53;;;2.63;;
5521;SDS011;2783;48.730;8.006;2022-11-15T13:59:53;5.35;;;2.30;;
5521;SDS011;2783;48.730;8.006;2022-11-15T14:02:26;6.22;;;1.98;;
5521;SDS011;2783;48.730;8.006;2022-11-15T14:04:58;4.78;;;2.55;;
5521;SDS011;2783;48.730;8.006;2022-11-15T14:07:28;5.60;;;2.63;;
5521;SDS011;2783;48.730;8.006;2022-11-15T14:09:54;4.97;;;2.63;;
5521;SDS011;2783;48.730;8.006;2022-11-15T14:12:38;3.28;;;1.95;;
5521;SDS011;2783;48.730;8.006;2022-11-15T14:15:25;4.47;;;2.42;;
5521;SDS011;2783;48.730;8.006;2022-11-15T14:17:51;4.60;;;2.08;;
5521;SDS011;2783;48.730;8.006;2022-11-15T14:22:54;3.67;;;2.10;;
5521;SDS011;2783;48.730;8.006;2022-11-15T14:25:22;4.35;;;2.38;;
5521;SDS011;2783;48.730;8.006;2022-11-15T14:30:38;4.38;;;2.15;;
5521;SDS011;2783;48.730;8.006;2022-11-15T14:36:20;4.78;;;2.78;;
5521;SDS011;2783;48.730;8.006;2022-11-15T14:38:46;4.65;;;2.67;;
5521;SDS011;2783;48.730;8.006;2022-11-15T14:41:22;5.07;;;2.63;;
5521;SDS011;2783;48.730;8.006;2022-11-15T14:43:50;8.30;;;2.50;;
5521;SDS011;2783;48.730;8.006;2022-11-15T14:46:16;7.88;;;3.10;;
5521;SDS011;2783;48.730;8.006;2022-11-15T14:48:42;6.35;;;2.65;;
5521;SDS011;2783;48.730;8.006;2022-11-15T14:51:14;5.72;;;2.67;;
5521;SDS011;2783;48.730;8.006;2022-11-15T14:53:42;5.60;;;2.67;;
5521;SDS011;2783;48.730;8.006;2022-11-15T14:56:08;3.47;;;2.55;;
5521;SDS011;2783;48.730;8.006;2022-11-15T14:58:34;3.70;;;2.60;;
5521;SDS011;2783;48.730;8.006;2022-11-15T15:00:59;4.38;;;2.70;;
5521;SDS011;2783;48.730;8.006;2022-11-15T15:03:28;7.20;;;3.15;;
5521;SDS011;2783;48.730;8.006;2022-11-15T15:05:53;5.32;;;3.05;;
5521;SDS011;2783;48.730;8.006;2022-11-15T15:08:19;5.53;;;3.42;;
5521;SDS011;2783;48.730;8.006;2022-11-15T15:10:44;5.05;;;3.20;;
5521;SDS011;2783;48.730;8.006;2022-11-15T15:13:18;10.95;;;3.60;;
5521;SDS011;2783;48.730;8.006;2022-11-15T15:15:45;5.22;;;2.70;;
5521;SDS011;2783;48.730;8.006;2022-11-15T15:18:11;4.55;;;2.58;;
5521;SDS011;2783;48.730;8.006;2022-11-15T15:20:38;3.95;;;2.67;;
5521;SDS011;2783;48.730;8.006;2022-11-15T15:23:07;4.55;;;3.03;;
5521;SDS011;2783;48.730;8.006;2022-11-15T15:25:39;6.93;;;3.00;;
5521;SDS011;2783;48.730;8.006;2022-11-15T15:28:05;5.72;;;2.90;;
5521;SDS011;2783;48.730;8.006;2022-11-15T15:30:30;6.22;;;3.72;;
5521;SDS011;2783;48.730;8.006;2022-11-15T15:32:56;6.43;;;3.58;;
5521;SDS011;2783;48.730;8.006;2022-11-15T15:35:21;5.85;;;3.40;;
5521;SDS011;2783;48.730;8.006;2022-11-15T15:37:47;6.00;;;3.40;;
5521;SDS011;2783;48.730;8.006;2022-11-15T15:40:16;7.60;;;3.72;;
5521;SDS011;2783;48.730;8.006;2022-11-15T15:42:43;5.07;;;3.60;;
5521;SDS011;2783;48.730;8.006;2022-11-15T15:45:09;9.40;;;3.67;;
5521;SDS011;2783;48.730;8.006;2022-11-15T15:47:35;6.95;;;3.55;;
5521;SDS011;2783;48.730;8.006;2022-11-15T15:50:01;7.15;;;3.97;;
5521;SDS011;2783;48.730;8.006;2022-11-15T15:52:27;4.40;;;2.95;;
5521;SDS011;2783;48.730;8.006;2022-11-15T15:54:52;9.40;;;3.40;;
5521;SDS011;2783;48.730;8.006;2022-11-15T15:57:18;4.30;;;2.83;;
5521;SDS011;2783;48.730;8.006;2022-11-15T15:59:43;4.63;;;3.13;;
5521;SDS011;2783;48.730;8.006;2022-11-15T16:02:11;7.60;;;2.95;;
5521;SDS011;2783;48.730;8.006;2022-11-15T16:04:37;4.72;;;2.83;;
5521;SDS011;2783;48.730;8.006;2022-11-15T16:07:03;6.75;;;3.00;;
5521;SDS011;2783;48.730;8.006;2022-11-15T16:09:29;5.05;;;3.28;;
5521;SDS011;2783;48.730;8.006;2022-11-15T16:12:13;6.70;;;3.00;;
5521;SDS011;2783;48.730;8.006;2022-11-15T16:14:41;6.07;;;3.60;;
5521;SDS011;2783;48.730;8.006;2022-11-15T16:17:09;5.57;;;3.00;;
5521;SDS011;2783;48.730;8.006;2022-11-15T16:19:42;5.00;;;3.08;;
5521;SDS011;2783;48.730;8.006;2022-11-15T16:22:07;11.82;;;4.43;;
5521;SDS011;2783;48.730;8.006;2022-11-15T16:24:33;6.70;;;3.67;;
5521;SDS011;2783;48.730;8.006;2022-11-15T16:26:58;6.32;;;2.83;;
5521;SDS011;2783;48.730;8.006;2022-11-15T16:29:24;13.95;;;3.72;;
5521;SDS011;2783;48.730;8.006;2022-11-15T16:31:49;6.50;;;3.13;;
5521;SDS011;2783;48.730;8.006;2022-11-15T16:34:15;11.73;;;3.55;;
5521;SDS011;2783;48.730;8.006;2022-11-15T16:36:40;14.25;;;3.97;;
5521;SDS011;2783;48.730;8.006;2022-11-15T16:39:06;5.55;;;2.88;;
5521;SDS011;2783;48.730;8.006;2022-11-15T16:41:35;8.98;;;3.35;;
5521;SDS011;2783;48.730;8.006;2022-11-15T16:44:00;6.70;;;2.88;;
5521;SDS011;2783;48.730;8.006;2022-11-15T16:46:26;6.05;;;3.10;;
5521;SDS011;2783;48.730;8.006;2022-11-15T16:48:53;6.00;;;3.55;;
5521;SDS011;2783;48.730;8.006;2022-11-15T16:51:19;5.75;;;2.90;;
5521;SDS011;2783;48.730;8.006;2022-11-15T16:53:45;5.45;;;2.78;;
5521;SDS011;2783;48.730;8.006;2022-11-15T16:56:24;6.00;;;2.70;;
5521;SDS011;2783;48.730;8.006;2022-11-15T16:58:54;7.63;;;3.50;;
5521;SDS011;2783;48.730;8.006;2022-11-15T17:01:27;8.25;;;3.80;;
5521;SDS011;2783;48.730;8.006;2022-11-15T17:03:53;9.45;;;4.13;;
5521;SDS011;2783;48.730;8.006;2022-11-15T17:06:20;22.65;;;9.35;;
5521;SDS011;2783;48.730;8.006;2022-11-15T17:08:46;33.22;;;19.35;;
5521;SDS011;2783;48.730;8.006;2022-11-15T17:11:13;22.80;;;15.20;;
5521;SDS011;2783;48.730;8.006;2022-11-15T17:13:40;23.52;;;15.85;;
5521;SDS011;2783;48.730;8.006;2022-11-15T17:16:10;20.95;;;13.98;;
5521;SDS011;2783;48.730;8.006;2022-11-15T17:18:37;23.00;;;15.25;;
5521;SDS011;2783;48.730;8.006;2022-11-15T17:21:04;32.22;;;17.73;;
5521;SDS011;2783;48.730;8.006;2022-11-15T17:23:31;27.90;;;16.23;;
5521;SDS011;2783;48.730;8.006;2022-11-15T17:26:00;80.47;;;24.42;;
5521;SDS011;2783;48.730;8.006;2022-11-15T17:28:28;47.50;;;17.85;;
5521;SDS011;2783;48.730;8.006;2022-11-15T17:30:54;74.50;;;16.23;;
5521;SDS011;2783;48.730;8.006;2022-11-15T17:33:19;29.20;;;16.05;;
5521;SDS011;2783;48.730;8.006;2022-11-15T17:35:44;46.35;;;15.02;;
5521;SDS011;2783;48.730;8.006;2022-11-15T17:38:10;21.52;;;14.30;;
5521;SDS011;2783;48.730;8.006;2022-11-15T17:40:35;39.35;;;15.00;;
5521;SDS011;2783;48.730;8.006;2022-11-15T17:43:01;35.92;;;14.15;;
5521;SDS011;2783;48.730;8.006;2022-11-15T17:45:26;37.65;;;14.05;;
5521;SDS011;2783;48.730;8.006;2022-11-15T17:47:52;19.00;;;12.90;;
5521;SDS011;2783;48.730;8.006;2022-11-15T17:50:17;22.02;;;14.18;;
5521;SDS011;2783;48.730;8.006;2022-11-15T17:52:43;26.88;;;16.17;;
5521;SDS011;2783;48.730;8.006;2022-11-15T17:55:08;22.15;;;14.10;;
5521;SDS011;2783;48.730;8.006;2022-11-15T17:57:34;25.80;;;15.18;;
5521;SDS011;2783;48.730;8.006;2022-11-15T17:59:59;19.63;;;13.13;;
5521;SDS011;2783;48.730;8.006;2022-11-15T18:02:24;21.17;;;15.43;;